G.bellini — IKGF — position and weather

sailwx.info

Track history (hours):
 
Tides and Currents Weather Stations Pressure Air Temp Water Temp Dewpoint Dewpoint Depression Visibility Wind Speed Wind Dir Waves Ship Positions

G.bellini

Last reported at 2015-Jul-29 16:09 UTC. Time now 2015-Jul-30 00:07 UTC.
Position N 42°50' E 010°27'.

Length 72 m; draft 3.3 m.

Type: Ship. MMSI: 247041900.

Date/timePositionNaut miles runAvg speedWind from/ knotsBaromVisibWave heightAir tempDewpointWater temp
2015-Jul-29 16:09N 42°50' E 010°27'1 0.0
2015-Jul-28 16:17N 42°49' E 010°26'8 7.8
2015-Jul-28 15:14N 42°56' E 010°33'13 8.0
2015-Jul-28 13:33N 42°43' E 010°27'8 1.5
2015-Jul-28 08:24N 42°39' E 010°18'16 1.1
2015-Jul-27 17:33N 42°52' E 010°30'  
2015-Jul-24 17:33N 42°52' E 010°31'3 2.8
2015-Jul-24 16:33N 42°54' E 010°33'7 6.7
2015-Jul-24 15:30N 42°49' E 010°27'8 6.7
2015-Jul-24 14:14N 42°56' E 010°34'0 0.1
2015-Jul-24 11:13N 42°56' E 010°33'5 3.0
2015-Jul-24 09:33N 42°52' E 010°30'5 4.8
2015-Jul-24 08:34N 42°55' E 010°34'0 0.2
2015-Jul-24 06:27N 42°56' E 010°34'1 1.0
2015-Jul-24 05:33N 42°55' E 010°33'7 0.5
2015-Jul-23 16:11N 42°49' E 010°27'8 7.6
2015-Jul-23 15:07N 42°56' E 010°33'5 3.5
2015-Jul-23 13:33N 42°51' E 010°29'1 0.4
2015-Jul-23 11:33N 42°51' E 010°29'1 0.6
2015-Jul-23 09:33N 42°52' E 010°30'5 1.6
2015-Jul-23 06:28N 42°56' E 010°34'8 0.6
2015-Jul-22 16:11N 42°49' E 010°27'8 7.6
2015-Jul-22 15:07N 42°56' E 010°33'813.3
2015-Jul-22 14:33N 42°50' E 010°27'2 2.2
2015-Jul-22 13:33N 42°51' E 010°29'1 0.4
2015-Jul-22 11:33N 42°51' E 010°29'1 0.4
2015-Jul-22 09:34N 42°51' E 010°29'2 2.0
2015-Jul-22 08:22N 42°53' E 010°32'3 1.4
2015-Jul-22 06:28N 42°55' E 010°33'2 1.6
2015-Jul-22 05:28N 42°54' E 010°32'6 0.5
2015-Jul-21 16:13N 42°49' E 010°27'8 7.7
2015-Jul-21 15:07N 42°56' E 010°33'2610.0
2015-Jul-21 12:34N 42°38' E 010°09'4 1.1
2015-Jul-21 08:31N 42°39' E 010°15'2110.4
2015-Jul-21 06:31N 42°55' E 010°33'0 0.2
2015-Jul-21 05:33N 42°55' E 010°33'3 0.3
2015-Jul-20 17:33N 42°52' E 010°30'1 1.2
2015-Jul-20 16:27N 42°53' E 010°32'6 6.0
2015-Jul-20 15:31N 42°49' E 010°27'8 6.5
2015-Jul-20 14:16N 42°56' E 010°33'0 0.0
2015-Jul-20 11:29N 42°56' E 010°33'3 1.0
2015-Jul-20 08:20N 42°53' E 010°31'2 1.0
2015-Jul-20 06:33N 42°55' E 010°33'0 0.2
2015-Jul-20 05:31N 42°54' E 010°33'3 0.2
2015-Jul-19 17:33N 42°52' E 010°30'  
Track history (hours):
 
Tides and Currents Weather Stations Pressure Air Temp Water Temp Dewpoint Dewpoint Depression Visibility Wind Speed Wind Dir Waves Ship Positions

G.bellini

Last reported at 2015-Jul-29 16:09 UTC. Time now 2015-Jul-30 00:07 UTC.
Position N 42°50' E 010°27'.

Length 72 m; draft 3.3 m.

Type: Ship. MMSI: 247041900.

Date/timePositionNaut miles runAvg speedWind from/ knotsBaromVisibWave heightAir tempDewpointWater temp
2015-Jul-29 16:09N 42°50' E 010°27'1 0.0
2015-Jul-28 16:17N 42°49' E 010°26'8 7.8
2015-Jul-28 15:14N 42°56' E 010°33'13 8.0
2015-Jul-28 13:33N 42°43' E 010°27'8 1.5
2015-Jul-28 08:24N 42°39' E 010°18'16 1.1
2015-Jul-27 17:33N 42°52' E 010°30'  
2015-Jul-24 17:33N 42°52' E 010°31'3 2.8
2015-Jul-24 16:33N 42°54' E 010°33'7 6.7
2015-Jul-24 15:30N 42°49' E 010°27'8 6.7
2015-Jul-24 14:14N 42°56' E 010°34'0 0.1
2015-Jul-24 11:13N 42°56' E 010°33'5 3.0
2015-Jul-24 09:33N 42°52' E 010°30'5 4.8
2015-Jul-24 08:34N 42°55' E 010°34'0 0.2
2015-Jul-24 06:27N 42°56' E 010°34'1 1.0
2015-Jul-24 05:33N 42°55' E 010°33'7 0.5
2015-Jul-23 16:11N 42°49' E 010°27'8 7.6
2015-Jul-23 15:07N 42°56' E 010°33'5 3.5
2015-Jul-23 13:33N 42°51' E 010°29'1 0.4
2015-Jul-23 11:33N 42°51' E 010°29'1 0.6
2015-Jul-23 09:33N 42°52' E 010°30'5 1.6
2015-Jul-23 06:28N 42°56' E 010°34'8 0.6
2015-Jul-22 16:11N 42°49' E 010°27'8 7.6
2015-Jul-22 15:07N 42°56' E 010°33'813.3
2015-Jul-22 14:33N 42°50' E 010°27'2 2.2
2015-Jul-22 13:33N 42°51' E 010°29'1 0.4
2015-Jul-22 11:33N 42°51' E 010°29'1 0.4
2015-Jul-22 09:34N 42°51' E 010°29'2 2.0
2015-Jul-22 08:22N 42°53' E 010°32'3 1.4
2015-Jul-22 06:28N 42°55' E 010°33'2 1.6
2015-Jul-22 05:28N 42°54' E 010°32'6 0.5
2015-Jul-21 16:13N 42°49' E 010°27'8 7.7
2015-Jul-21 15:07N 42°56' E 010°33'2610.0
2015-Jul-21 12:34N 42°38' E 010°09'4 1.1
2015-Jul-21 08:31N 42°39' E 010°15'2110.4
2015-Jul-21 06:31N 42°55' E 010°33'0 0.2
2015-Jul-21 05:33N 42°55' E 010°33'3 0.3
2015-Jul-20 17:33N 42°52' E 010°30'1 1.2
2015-Jul-20 16:27N 42°53' E 010°32'6 6.0
2015-Jul-20 15:31N 42°49' E 010°27'8 6.5
2015-Jul-20 14:16N 42°56' E 010°33'0 0.0
2015-Jul-20 11:29N 42°56' E 010°33'3 1.0
2015-Jul-20 08:20N 42°53' E 010°31'2 1.0
2015-Jul-20 06:33N 42°55' E 010°33'0 0.2
2015-Jul-20 05:31N 42°54' E 010°33'3 0.2
2015-Jul-19 17:33N 42°52' E 010°30'  

Dump ship's entire track history